Aviation Digital Data Service (ADDS)

Output produced by METARs form (0756 UTC 07 December 2022)
found at http://www.aviationweather.gov/metar/data/
 
METAR text: ZBAA 070730Z VRB01MPS CAVOK 07/M19 Q1023 NOSIG
Conditions at: ZBAA (BEIJING/PEKING , CN) observed 0730 UTC 07 December 2022
Temperature: 7.0°C (45°F)
Dewpoint: -19.0°C (-2°F) [RH = 14%]
Pressure (altimeter): 30.21 inches Hg (1023.0 mb)
Winds: variable direction winds at 2 MPH (2 knots; 1.0 m/s)
Visibility: 6 or more miles (10+ km)
Ceiling: ceiling and visibility are OK
Clouds: unknown
Weather: no significant weather observed at this time

Forecast for: ZBAA (BEIJING/PEKING , CN)
Text: TAF ZBAA 070301Z 0706/0806 19004MPS CAVOK TX07/0707Z TNM10/0721Z
Forecast period: 0600 UTC 07 December 2022 to 0600 UTC 08 December 2022
Forecast type: FROM: standard forecast or significant change
Winds: from the S (190 degrees) at 9 MPH (8 knots; 4.1 m/s)
Visibility: 6 or more miles (10+ km)
Ceiling: unknown
Clouds: missing
Weather: no significant weather forecast for this period